Time;durP1;ratioP1;P1;durP2;ratioP2;P2;SDS_P1;SDS_P2;PMS_P1;PMS_P2;Temp;Humidity;BMP_temperature;BMP_pressure;BME280_temperature;BME280_humidity;BME280_pressure;Samples;Min_cycle;Max_cycle;Signal;HPM_P1;HPM_P2
2023/11/27 00:01:33;;;;;;;44.70;19.35;;;;;;;;;;5044171;28;20045;-69
2023/11/27 00:03:59;;;;;;;41.85;18.50;;;;;;;;;;5025470;28;20518;-68
2023/11/27 00:06:25;;;;;;;38.83;19.02;;;;;;;;;;5022789;28;20064;-69
2023/11/27 00:08:51;;;;;;;46.35;20.95;;;;;;;;;;5020523;28;20044;-69
2023/11/27 00:11:17;;;;;;;44.72;21.05;;;;;;;;;;5041135;28;20464;-69
2023/11/27 00:13:43;;;;;;;41.53;21.85;;;;;;;;;;5043849;28;20064;-68
2023/11/27 00:16:10;;;;;;;47.83;22.88;;;;;;;;;;5024610;28;20057;-69
2023/11/27 00:18:36;;;;;;;47.38;24.27;;;;;;;;;;5025970;28;20045;-68
2023/11/27 00:21:02;;;;;;;54.35;26.08;;;;;;;;;;5027791;28;20030;-69
2023/11/27 00:23:29;;;;;;;45.42;26.67;;;;;;;;;;5026021;28;20487;-68
2023/11/27 00:25:56;;;;;;;53.38;28.13;;;;;;;;;;5023956;28;20050;-69
2023/11/27 00:28:23;;;;;;;60.70;31.30;;;;;;;;;;5025539;28;20034;-68
2023/11/27 00:30:49;;;;;;;65.65;32.38;;;;;;;;;;5027216;28;20057;-69
2023/11/27 00:33:15;;;;;;;69.03;33.40;;;;;;;;;;5028344;28;20484;-68
2023/11/27 00:35:41;;;;;;;66.55;34.15;;;;;;;;;;5028268;28;20092;-69
2023/11/27 00:38:08;;;;;;;75.03;34.70;;;;;;;;;;5028049;28;20042;-68
2023/11/27 00:40:37;;;;;;;68.93;32.90;;;;;;;;;;5027354;28;20045;-68
2023/11/27 00:43:04;;;;;;;75.43;32.72;;;;;;;;;;5024988;28;20563;-68
2023/11/27 00:45:31;;;;;;;70.10;33.28;;;;;;;;;;5023990;28;20095;-68
2023/11/27 00:47:59;;;;;;;78.53;34.67;;;;;;;;;;5023191;28;20061;-68
2023/11/27 00:50:25;;;;;;;81.88;33.70;;;;;;;;;;5024432;28;20045;-68
2023/11/27 00:52:52;;;;;;;80.68;35.25;;;;;;;;;;5039950;28;21255;-68
2023/11/27 00:55:18;;;;;;;85.50;38.10;;;;;;;;;;5021804;28;20050;-68
2023/11/27 00:57:45;;;;;;;91.53;40.13;;;;;;;;;;5022464;28;20056;-68
2023/11/27 01:00:12;;;;;;;80.13;39.10;;;;;;;;;;5024523;28;20480;-68
2023/11/27 01:02:39;;;;;;;81.25;38.40;;;;;;;;;;5023579;28;20049;-68
2023/11/27 01:05:07;;;;;;;89.60;40.08;;;;;;;;;;5025859;28;20083;-68
2023/11/27 01:07:33;;;;;;;81.72;40.67;;;;;;;;;;5022113;28;20056;-67
2023/11/27 01:09:59;;;;;;;89.30;40.25;;;;;;;;;;5024031;28;20092;-68
2023/11/27 01:12:26;;;;;;;86.63;37.13;;;;;;;;;;5021153;28;20377;-68
2023/11/27 01:14:52;;;;;;;81.90;38.30;;;;;;;;;;5025528;28;20069;-67
2023/11/27 01:17:18;;;;;;;82.15;38.35;;;;;;;;;;5029796;28;20076;-67
2023/11/27 01:19:44;;;;;;;92.78;40.58;;;;;;;;;;5028658;28;20059;-67
2023/11/27 01:22:10;;;;;;;92.10;39.45;;;;;;;;;;5028521;28;20037;-68
2023/11/27 01:24:36;;;;;;;87.80;39.53;;;;;;;;;;5029247;28;20128;-67
2023/11/27 01:27:03;;;;;;;86.45;39.55;;;;;;;;;;5023522;28;20504;-67
2023/11/27 01:29:29;;;;;;;97.45;43.72;;;;;;;;;;5028890;28;20186;-67
2023/11/27 01:31:55;;;;;;;79.60;40.30;;;;;;;;;;5026900;28;20046;-67
2023/11/27 01:34:21;;;;;;;93.25;43.60;;;;;;;;;;5027541;28;20054;-67
2023/11/27 01:36:47;;;;;;;91.22;43.03;;;;;;;;;;5028831;28;20195;-67
2023/11/27 01:39:14;;;;;;;93.30;42.85;;;;;;;;;;5027933;28;20065;-67
2023/11/27 01:41:40;;;;;;;93.25;43.67;;;;;;;;;;5027494;28;20481;-67
2023/11/27 01:44:07;;;;;;;96.72;44.90;;;;;;;;;;5026997;28;20044;-67
2023/11/27 01:46:33;;;;;;;104.60;46.42;;;;;;;;;;5023771;28;20055;-68
2023/11/27 01:48:59;;;;;;;101.10;45.67;;;;;;;;;;5025331;28;20049;-67
2023/11/27 01:51:27;;;;;;;91.43;44.63;;;;;;;;;;5024400;28;20120;-68
2023/11/27 01:53:57;;;;;;;91.10;43.53;;;;;;;;;;5022425;28;20041;-67
2023/11/27 01:56:24;;;;;;;89.18;43.17;;;;;;;;;;5025982;28;20148;-67
2023/11/27 01:58:51;;;;;;;99.53;45.55;;;;;;;;;;5023013;28;20374;-67
2023/11/27 02:01:17;;;;;;;94.95;45.95;;;;;;;;;;5021439;28;20392;-67
2023/11/27 02:03:44;;;;;;;97.57;46.25;;;;;;;;;;5022608;28;20041;-67
2023/11/27 02:06:10;;;;;;;101.25;46.08;;;;;;;;;;5023319;28;20049;-67
2023/11/27 02:08:36;;;;;;;99.75;46.78;;;;;;;;;;5022040;28;20045;-67
2023/11/27 02:11:02;;;;;;;94.55;44.58;;;;;;;;;;5020266;28;20045;-67
2023/11/27 02:13:29;;;;;;;97.65;44.80;;;;;;;;;;5020585;28;20053;-67
2023/11/27 02:15:55;;;;;;;93.88;44.22;;;;;;;;;;5035239;28;20111;-67
2023/11/27 02:18:21;;;;;;;91.90;43.15;;;;;;;;;;5021349;28;20060;-67
2023/11/27 02:20:48;;;;;;;90.47;42.55;;;;;;;;;;5029992;28;20120;-67
2023/11/27 02:23:15;;;;;;;87.32;42.75;;;;;;;;;;5030929;28;20144;-67
2023/11/27 02:25:41;;;;;;;88.97;41.65;;;;;;;;;;5045895;28;20056;-67
2023/11/27 02:28:08;;;;;;;79.18;42.00;;;;;;;;;;5030777;28;20128;-67
2023/11/27 02:30:34;;;;;;;84.70;42.95;;;;;;;;;;5030081;28;20445;-67
2023/11/27 02:33:01;;;;;;;87.75;42.42;;;;;;;;;;5048023;28;20033;-67
2023/11/27 02:35:27;;;;;;;95.88;43.15;;;;;;;;;;5030721;28;20340;-67
2023/11/27 02:37:53;;;;;;;92.22;43.47;;;;;;;;;;5046886;28;20032;-67
2023/11/27 02:40:21;;;;;;;86.43;41.58;;;;;;;;;;5027875;28;20464;-67
2023/11/27 02:42:48;;;;;;;88.05;41.45;;;;;;;;;;5030511;28;20041;-67
2023/11/27 02:45:15;;;;;;;80.35;39.72;;;;;;;;;;5030092;28;20067;-67
2023/11/27 02:47:41;;;;;;;80.25;38.90;;;;;;;;;;5046373;28;20090;-67
2023/11/27 02:50:08;;;;;;;70.38;36.88;;;;;;;;;;5030105;28;20398;-67
2023/11/27 02:52:34;;;;;;;67.63;36.75;;;;;;;;;;5030457;28;20041;-67
2023/11/27 02:55:01;;;;;;;74.43;36.90;;;;;;;;;;5028943;28;20060;-67
2023/11/27 02:57:27;;;;;;;74.50;36.63;;;;;;;;;;5028163;28;20449;-67
2023/11/27 02:59:53;;;;;;;71.68;36.60;;;;;;;;;;5006474;28;20053;-67
2023/11/27 03:02:20;;;;;;;62.80;33.95;;;;;;;;;;5025881;28;20040;-67
2023/11/27 03:04:46;;;;;;;62.33;33.78;;;;;;;;;;5044147;28;20152;-67
2023/11/27 03:07:13;;;;;;;65.88;33.88;;;;;;;;;;5022777;28;20386;-67
2023/11/27 03:09:39;;;;;;;60.15;34.10;;;;;;;;;;5040059;28;20120;-67
2023/11/27 03:12:05;;;;;;;62.15;32.60;;;;;;;;;;5024468;28;20124;-67
2023/11/27 03:14:31;;;;;;;61.83;33.58;;;;;;;;;;5023396;28;20399;-67
2023/11/27 03:16:58;;;;;;;61.30;31.58;;;;;;;;;;5026432;28;20111;-67
2023/11/27 03:19:24;;;;;;;67.63;33.38;;;;;;;;;;5044400;28;20049;-67
2023/11/27 03:21:50;;;;;;;64.28;33.25;;;;;;;;;;5023380;28;20090;-67
2023/11/27 03:24:16;;;;;;;57.70;31.73;;;;;;;;;;5042489;28;20045;-67
2023/11/27 03:26:42;;;;;;;65.82;33.38;;;;;;;;;;5025568;28;20106;-67
2023/11/27 03:29:09;;;;;;;60.67;30.92;;;;;;;;;;5040979;28;20668;-67
2023/11/27 03:31:35;;;;;;;65.60;32.58;;;;;;;;;;5026190;28;20041;-67
2023/11/27 03:34:01;;;;;;;63.15;31.70;;;;;;;;;;5025429;28;20052;-67
2023/11/27 03:36:27;;;;;;;66.00;33.42;;;;;;;;;;5042805;28;20045;-67
2023/11/27 03:38:53;;;;;;;60.83;31.52;;;;;;;;;;5045306;28;20087;-67
2023/11/27 03:41:21;;;;;;;60.63;30.65;;;;;;;;;;5025567;28;20049;-67
2023/11/27 03:43:47;;;;;;;61.42;31.25;;;;;;;;;;5041028;28;20048;-67
2023/11/27 03:46:14;;;;;;;76.22;33.47;;;;;;;;;;5042274;28;20041;-67
2023/11/27 03:48:40;;;;;;;69.32;34.25;;;;;;;;;;5026020;28;20037;-67
2023/11/27 03:51:07;;;;;;;57.03;31.02;;;;;;;;;;5023596;28;20052;-67
2023/11/27 03:53:33;;;;;;;60.65;31.30;;;;;;;;;;5042033;28;20045;-67
2023/11/27 03:55:59;;;;;;;64.97;32.70;;;;;;;;;;5042835;28;20093;-67
2023/11/27 03:58:26;;;;;;;66.00;32.42;;;;;;;;;;5024548;28;20053;-67
2023/11/27 04:00:53;;;;;;;65.28;33.53;;;;;;;;;;5024653;28;20060;-67
2023/11/27 04:03:20;;;;;;;69.93;31.90;;;;;;;;;;5022765;28;20077;-67
2023/11/27 04:05:47;;;;;;;64.40;33.08;;;;;;;;;;5012112;28;20090;-67
2023/11/27 04:08:13;;;;;;;73.05;31.30;;;;;;;;;;5047065;28;20061;-67
2023/11/27 04:10:41;;;;;;;69.15;32.72;;;;;;;;;;5007077;28;20052;-67
2023/11/27 04:13:08;;;;;;;67.40;31.25;;;;;;;;;;5043558;28;20119;-67
2023/11/27 04:15:34;;;;;;;59.25;29.67;;;;;;;;;;5045536;28;20064;-67
2023/11/27 04:18:00;;;;;;;51.92;26.98;;;;;;;;;;5028296;28;21635;-67
2023/11/27 04:20:26;;;;;;;53.30;27.67;;;;;;;;;;5030159;28;20382;-67
2023/11/27 04:22:52;;;;;;;52.30;26.88;;;;;;;;;;5033705;28;20053;-67
2023/11/27 04:25:19;;;;;;;53.72;27.90;;;;;;;;;;5033596;28;20041;-67
2023/11/27 04:27:45;;;;;;;57.45;27.90;;;;;;;;;;5032843;28;20210;-67
2023/11/27 04:30:12;;;;;;;55.97;27.75;;;;;;;;;;5032401;28;20048;-67
2023/11/27 04:32:38;;;;;;;53.85;26.83;;;;;;;;;;5032493;28;20393;-67
2023/11/27 04:35:05;;;;;;;48.80;26.20;;;;;;;;;;5051334;28;20044;-67
2023/11/27 04:37:31;;;;;;;50.25;26.27;;;;;;;;;;5032413;28;20068;-67
2023/11/27 04:39:57;;;;;;;44.40;24.35;;;;;;;;;;5031631;28;20489;-67
2023/11/27 04:42:25;;;;;;;51.30;25.95;;;;;;;;;;5051148;28;20380;-67
2023/11/27 04:44:52;;;;;;;48.28;25.02;;;;;;;;;;5033066;28;20060;-67
2023/11/27 04:47:18;;;;;;;53.88;25.83;;;;;;;;;;5048354;28;20405;-67
2023/11/27 04:49:44;;;;;;;44.47;24.73;;;;;;;;;;5031517;28;20045;-67
2023/11/27 04:52:10;;;;;;;40.65;22.83;;;;;;;;;;5032879;28;20053;-67
2023/11/27 04:54:38;;;;;;;43.65;24.35;;;;;;;;;;5031590;28;20385;-67
2023/11/27 04:57:06;;;;;;;45.08;22.63;;;;;;;;;;5045581;28;20041;-67
2023/11/27 04:59:32;;;;;;;46.65;24.70;;;;;;;;;;5025901;28;20052;-67
2023/11/27 05:01:58;;;;;;;48.67;24.45;;;;;;;;;;5026623;28;20513;-67
2023/11/27 05:04:24;;;;;;;47.45;24.08;;;;;;;;;;5046941;28;20419;-67
2023/11/27 05:06:51;;;;;;;42.78;23.27;;;;;;;;;;5027707;28;20041;-67
2023/11/27 05:09:17;;;;;;;40.33;23.73;;;;;;;;;;5027962;28;20055;-67
2023/11/27 05:11:43;;;;;;;38.55;22.17;;;;;;;;;;5025579;28;20060;-67
2023/11/27 05:14:09;;;;;;;40.22;21.95;;;;;;;;;;5031097;28;20076;-67
2023/11/27 05:16:36;;;;;;;38.30;22.15;;;;;;;;;;5027469;28;20052;-67
2023/11/27 05:19:02;;;;;;;35.47;21.05;;;;;;;;;;5027888;28;20061;-67
2023/11/27 05:21:28;;;;;;;37.75;21.05;;;;;;;;;;5027249;28;20408;-67
2023/11/27 05:23:54;;;;;;;39.70;20.92;;;;;;;;;;5025418;28;20103;-67
2023/11/27 05:26:21;;;;;;;38.10;22.00;;;;;;;;;;5027638;28;20060;-67
2023/11/27 05:28:47;;;;;;;37.40;20.92;;;;;;;;;;5026189;28;20049;-67
2023/11/27 05:31:14;;;;;;;39.60;21.13;;;;;;;;;;5027830;28;20489;-67
2023/11/27 05:33:42;;;;;;;35.47;20.95;;;;;;;;;;5027037;28;20080;-67
2023/11/27 05:36:14;;;;;;;37.40;19.80;;;;;;;;;;5026906;28;20124;-67
2023/11/27 05:38:40;;;;;;;34.58;20.38;;;;;;;;;;5025316;28;20064;-67
2023/11/27 05:41:07;;;;;;;34.55;20.27;;;;;;;;;;5026888;28;20045;-67
2023/11/27 05:43:34;;;;;;;32.85;19.95;;;;;;;;;;5027246;28;20117;-67
2023/11/27 05:46:01;;;;;;;31.83;19.10;;;;;;;;;;5023658;28;20045;-67
2023/11/27 05:48:28;;;;;;;35.67;20.52;;;;;;;;;;5023564;28;20080;-67
2023/11/27 05:50:55;;;;;;;34.95;20.23;;;;;;;;;;5021629;28;20056;-67
2023/11/27 05:53:21;;;;;;;30.73;18.52;;;;;;;;;;5022760;28;20412;-67
2023/11/27 05:55:47;;;;;;;35.60;20.27;;;;;;;;;;5023034;28;20155;-67
2023/11/27 05:58:14;;;;;;;34.00;19.13;;;;;;;;;;5020497;28;20091;-67
2023/11/27 06:00:41;;;;;;;32.90;18.30;;;;;;;;;;5020867;28;20484;-67
2023/11/27 06:03:07;;;;;;;30.90;18.75;;;;;;;;;;5019786;28;20053;-67
2023/11/27 06:05:34;;;;;;;30.02;17.77;;;;;;;;;;5022773;28;20065;-67
2023/11/27 06:08:01;;;;;;;32.95;17.33;;;;;;;;;;5019026;28;20650;-67
2023/11/27 06:10:28;;;;;;;31.23;18.17;;;;;;;;;;5038690;28;20111;-67
2023/11/27 06:12:54;;;;;;;30.23;18.05;;;;;;;;;;5024512;28;20121;-67
2023/11/27 06:15:20;;;;;;;29.83;18.17;;;;;;;;;;5035048;28;20504;-67
2023/11/27 06:17:46;;;;;;;31.50;18.15;;;;;;;;;;5022294;28;20064;-67
2023/11/27 06:20:14;;;;;;;31.25;17.88;;;;;;;;;;5044271;28;20041;-67
2023/11/27 06:22:41;;;;;;;29.75;18.65;;;;;;;;;;5043955;28;20083;-67
2023/11/27 06:25:07;;;;;;;30.17;17.58;;;;;;;;;;5026748;28;20437;-67
2023/11/27 06:27:34;;;;;;;28.52;17.67;;;;;;;;;;5027321;28;20048;-67
2023/11/27 06:30:00;;;;;;;32.92;18.90;;;;;;;;;;5030474;28;20140;-67
2023/11/27 06:32:26;;;;;;;32.60;17.65;;;;;;;;;;5047614;28;20377;-67
2023/11/27 06:34:52;;;;;;;29.48;17.23;;;;;;;;;;5030779;28;20487;-67
2023/11/27 06:37:19;;;;;;;32.85;18.88;;;;;;;;;;5030404;28;20103;-67
2023/11/27 06:39:46;;;;;;;37.28;20.33;;;;;;;;;;5027254;28;20055;-67
2023/11/27 06:42:14;;;;;;;31.13;18.65;;;;;;;;;;5025247;28;20053;-67
2023/11/27 06:44:40;;;;;;;31.08;18.30;;;;;;;;;;5027665;28;20139;-67
2023/11/27 06:47:07;;;;;;;31.92;18.15;;;;;;;;;;5027391;28;20130;-67
2023/11/27 06:49:33;;;;;;;31.48;18.25;;;;;;;;;;5027008;28;20064;-67
2023/11/27 06:52:00;;;;;;;35.90;19.67;;;;;;;;;;5025537;28;20056;-67
2023/11/27 06:54:27;;;;;;;33.97;18.08;;;;;;;;;;5022906;28;20488;-68
2023/11/27 06:56:54;;;;;;;27.80;17.42;;;;;;;;;;5042201;28;20089;-67
2023/11/27 06:59:20;;;;;;;31.13;17.90;;;;;;;;;;5041156;28;20609;-67
2023/11/27 07:01:46;;;;;;;30.05;18.65;;;;;;;;;;5043265;28;21262;-66
2023/11/27 07:04:12;;;;;;;30.77;18.08;;;;;;;;;;5043440;28;20103;-68
2023/11/27 07:06:39;;;;;;;24.98;16.33;;;;;;;;;;5024803;28;20345;-67
2023/11/27 07:09:06;;;;;;;27.70;17.77;;;;;;;;;;5044162;28;20041;-67
2023/11/27 07:11:32;;;;;;;33.55;17.85;;;;;;;;;;5023979;28;20059;-67
2023/11/27 07:14:00;;;;;;;28.98;17.23;;;;;;;;;;5023803;28;20080;-67
2023/11/27 07:16:28;;;;;;;27.65;17.30;;;;;;;;;;5044201;28;20045;-67
2023/11/27 07:18:55;;;;;;;28.33;16.45;;;;;;;;;;5026714;28;20383;-67
2023/11/27 07:21:21;;;;;;;26.30;16.75;;;;;;;;;;5026186;28;20163;-67
2023/11/27 07:23:49;;;;;;;27.45;16.40;;;;;;;;;;5027723;28;20045;-67
2023/11/27 07:26:15;;;;;;;27.77;16.90;;;;;;;;;;5030336;28;20036;-67
2023/11/27 07:28:42;;;;;;;31.23;17.25;;;;;;;;;;5046605;28;20045;-67
2023/11/27 07:31:09;;;;;;;29.70;17.40;;;;;;;;;;5028890;28;20554;-67
2023/11/27 07:33:38;;;;;;;31.30;17.83;;;;;;;;;;5026686;28;20099;-67
2023/11/27 07:36:06;;;;;;;32.35;18.52;;;;;;;;;;5024810;28;20053;-67
2023/11/27 07:38:32;;;;;;;29.40;17.30;;;;;;;;;;5044185;28;20507;-67
2023/11/27 07:40:58;;;;;;;29.52;18.05;;;;;;;;;;5027414;28;20052;-68
2023/11/27 07:43:25;;;;;;;31.55;17.88;;;;;;;;;;5046280;28;20198;-67
2023/11/27 07:45:51;;;;;;;28.83;17.98;;;;;;;;;;5030128;28;20100;-66
2023/11/27 07:48:18;;;;;;;27.63;17.65;;;;;;;;;;5029258;28;20049;-69
2023/11/27 07:50:45;;;;;;;25.33;16.58;;;;;;;;;;5029211;28;20064;-68
2023/11/27 07:53:12;;;;;;;28.02;16.63;;;;;;;;;;5046266;28;20037;-68
2023/11/27 07:55:40;;;;;;;27.70;18.13;;;;;;;;;;5027059;28;20067;-68
2023/11/27 07:58:06;;;;;;;30.58;18.52;;;;;;;;;;5026752;28;20495;-68
2023/11/27 08:00:32;;;;;;;28.50;18.70;;;;;;;;;;5045131;28;20053;-69
2023/11/27 08:02:58;;;;;;;28.08;17.10;;;;;;;;;;5027853;28;20055;-69
2023/11/27 08:05:27;;;;;;;26.42;17.65;;;;;;;;;;5027429;28;20041;-69
2023/11/27 08:07:54;;;;;;;35.03;17.85;;;;;;;;;;5027209;28;20076;-68
2023/11/27 08:10:21;;;;;;;31.35;18.58;;;;;;;;;;5020298;28;20037;-68
2023/11/27 08:12:47;;;;;;;32.22;18.42;;;;;;;;;;5012987;28;20136;-69
2023/11/27 08:15:18;;;;;;;27.05;17.35;;;;;;;;;;5028695;28;20068;-69
2023/11/27 08:17:45;;;;;;;29.50;17.80;;;;;;;;;;5028409;28;20559;-68
2023/11/27 08:20:12;;;;;;;28.63;17.55;;;;;;;;;;5015426;28;20178;-69
2023/11/27 08:22:38;;;;;;;30.55;18.35;;;;;;;;;;5030445;28;20048;-69
2023/11/27 08:25:04;;;;;;;30.25;18.27;;;;;;;;;;5031154;28;20052;-69
2023/11/27 08:27:31;;;;;;;27.92;17.35;;;;;;;;;;5050189;28;20060;-68
2023/11/27 08:29:58;;;;;;;30.52;17.98;;;;;;;;;;5046956;28;20037;-69
2023/11/27 08:32:27;;;;;;;30.27;17.67;;;;;;;;;;5030651;28;20119;-70
2023/11/27 08:34:53;;;;;;;30.58;17.15;;;;;;;;;;5032352;28;20049;-73
2023/11/27 08:37:19;;;;;;;30.25;17.30;;;;;;;;;;5032207;28;20045;-69
2023/11/27 08:39:46;;;;;;;29.55;15.93;;;;;;;;;;5045280;28;20396;-64
2023/11/27 08:42:12;;;;;;;25.17;16.38;;;;;;;;;;5044868;28;20040;-75
2023/11/27 08:44:38;;;;;;;28.75;16.73;;;;;;;;;;5026523;28;20083;-69
2023/11/27 08:47:05;;;;;;;25.00;15.25;;;;;;;;;;5028844;28;20045;-68
2023/11/27 08:49:31;;;;;;;28.10;16.40;;;;;;;;;;5028076;28;20041;-69
2023/11/27 08:51:57;;;;;;;24.67;15.48;;;;;;;;;;5027599;28;20492;-68
2023/11/27 08:54:24;;;;;;;26.48;15.80;;;;;;;;;;5030250;28;20395;-69
2023/11/27 08:56:54;;;;;;;27.77;15.52;;;;;;;;;;5029019;28;20056;-68
2023/11/27 08:59:20;;;;;;;27.83;15.68;;;;;;;;;;5029177;28;20506;-69
2023/11/27 09:01:46;;;;;;;24.83;14.48;;;;;;;;;;5043130;28;21174;-68
2023/11/27 09:04:12;;;;;;;28.83;14.65;;;;;;;;;;5026801;28;20120;-68
2023/11/27 09:06:39;;;;;;;25.77;14.30;;;;;;;;;;5026343;28;20128;-67
2023/11/27 09:09:07;;;;;;;23.70;14.57;;;;;;;;;;5045973;28;21967;-68
2023/11/27 09:11:33;;;;;;;25.33;14.55;;;;;;;;;;5025752;28;20490;-67
2023/11/27 09:13:59;;;;;;;26.20;14.40;;;;;;;;;;5030828;28;20372;-68
2023/11/27 09:16:25;;;;;;;22.15;13.57;;;;;;;;;;5025800;28;20057;-68
2023/11/27 09:18:52;;;;;;;24.08;14.82;;;;;;;;;;5025668;28;21135;-67
2023/11/27 09:21:18;;;;;;;21.20;14.60;;;;;;;;;;5030830;28;20124;-68
2023/11/27 09:23:44;;;;;;;26.63;14.35;;;;;;;;;;5030329;28;20087;-68
2023/11/27 09:26:10;;;;;;;20.85;12.80;;;;;;;;;;5028102;28;20404;-68
2023/11/27 09:28:36;;;;;;;22.13;13.32;;;;;;;;;;5027436;28;20370;-68
2023/11/27 09:31:02;;;;;;;19.90;12.65;;;;;;;;;;5030894;28;20179;-68
2023/11/27 09:33:29;;;;;;;20.02;13.05;;;;;;;;;;5028441;28;20512;-68
2023/11/27 09:35:55;;;;;;;22.45;12.60;;;;;;;;;;5026635;28;20129;-68
2023/11/27 09:38:21;;;;;;;21.65;12.00;;;;;;;;;;5026587;28;20037;-68
2023/11/27 09:40:47;;;;;;;22.50;13.68;;;;;;;;;;5021846;28;20131;-68
2023/11/27 09:43:14;;;;;;;21.15;12.35;;;;;;;;;;5024422;28;20037;-68
2023/11/27 09:45:40;;;;;;;17.75;11.00;;;;;;;;;;5024874;28;20041;-68
2023/11/27 09:48:10;;;;;;;18.80;10.40;;;;;;;;;;5021784;28;20352;-68
2023/11/27 09:50:37;;;;;;;16.20;9.73;;;;;;;;;;5022960;28;20060;-68
2023/11/27 09:53:05;;;;;;;14.77;9.20;;;;;;;;;;5025198;28;21122;-68
2023/11/27 09:55:34;;;;;;;13.52;8.60;;;;;;;;;;5020421;28;20057;-68
2023/11/27 09:58:01;;;;;;;13.02;8.07;;;;;;;;;;5026329;28;20063;-68
2023/11/27 10:00:27;;;;;;;12.90;7.88;;;;;;;;;;5025651;28;20053;-67
2023/11/27 10:02:54;;;;;;;13.68;7.55;;;;;;;;;;5022454;28;20037;-68
2023/11/27 10:05:22;;;;;;;12.93;7.57;;;;;;;;;;5024715;28;20037;-68
2023/11/27 10:07:50;;;;;;;14.02;8.88;;;;;;;;;;5023230;28;20046;-68
2023/11/27 10:10:16;;;;;;;13.57;8.57;;;;;;;;;;5021306;28;20091;-68
2023/11/27 10:12:45;;;;;;;14.07;8.73;;;;;;;;;;5027576;28;20052;-68
2023/11/27 10:15:15;;;;;;;15.30;8.85;;;;;;;;;;5029114;28;20049;-67
2023/11/27 10:17:43;;;;;;;13.07;8.27;;;;;;;;;;5026093;28;20049;-67
2023/11/27 10:20:13;;;;;;;12.70;8.25;;;;;;;;;;5027567;28;20037;-67
2023/11/27 10:22:42;;;;;;;14.48;8.65;;;;;;;;;;5026303;28;20051;-67
2023/11/27 10:25:13;;;;;;;14.15;8.18;;;;;;;;;;5022032;28;20099;-68
2023/11/27 10:27:41;;;;;;;11.98;8.18;;;;;;;;;;5024839;28;20069;-67
2023/11/27 10:30:11;;;;;;;10.50;7.28;;;;;;;;;;5006644;28;20104;-66
2023/11/27 10:32:38;;;;;;;12.10;7.32;;;;;;;;;;5024750;28;20148;-66
2023/11/27 10:35:07;;;;;;;12.18;7.45;;;;;;;;;;5024385;28;20444;-66
2023/11/27 10:37:35;;;;;;;11.00;6.65;;;;;;;;;;5022577;28;20151;-66
2023/11/27 10:40:04;;;;;;;12.18;7.60;;;;;;;;;;5024376;28;20053;-68
2023/11/27 10:42:31;;;;;;;12.35;7.68;;;;;;;;;;5023378;28;20049;-68
2023/11/27 10:44:58;;;;;;;10.98;6.93;;;;;;;;;;5019582;28;20025;-68
2023/11/27 10:47:26;;;;;;;10.07;6.88;;;;;;;;;;5025210;28;20060;-67
2023/11/27 10:49:53;;;;;;;14.45;7.10;;;;;;;;;;5021496;28;20042;-67
2023/11/27 10:52:20;;;;;;;11.65;7.57;;;;;;;;;;5021776;28;20037;-68
2023/11/27 10:54:48;;;;;;;10.65;7.22;;;;;;;;;;5022029;28;20432;-68
2023/11/27 10:57:19;;;;;;;12.60;7.05;;;;;;;;;;5022363;28;20068;-67
2023/11/27 10:59:46;;;;;;;10.52;6.93;;;;;;;;;;5038645;28;20246;-68
2023/11/27 11:02:12;;;;;;;8.38;6.10;;;;;;;;;;5022320;28;20049;-68
2023/11/27 11:04:45;;;;;;;10.15;6.10;;;;;;;;;;5022325;28;20057;-69
2023/11/27 11:07:19;;;;;;;10.15;6.28;;;;;;;;;;5020657;28;20052;-68
2023/11/27 11:09:49;;;;;;;9.35;6.20;;;;;;;;;;5006614;28;20507;-68
2023/11/27 11:12:19;;;;;;;8.73;5.97;;;;;;;;;;5022499;28;20039;-68
2023/11/27 11:14:46;;;;;;;9.95;5.93;;;;;;;;;;5021759;28;20504;-68
2023/11/27 11:17:19;;;;;;;12.45;6.00;;;;;;;;;;5024123;28;20099;-68
2023/11/27 11:19:54;;;;;;;9.95;5.57;;;;;;;;;;5025889;28;20075;-68
2023/11/27 11:22:30;;;;;;;8.20;5.13;;;;;;;;;;5026652;28;20049;-68
2023/11/27 11:25:13;;;;;;;8.30;4.78;;;;;;;;;;5025210;28;20075;-68
2023/11/27 11:27:45;;;;;;;8.15;5.15;;;;;;;;;;5024297;28;20103;-67
2023/11/27 11:30:13;;;;;;;7.85;5.18;;;;;;;;;;5024146;28;20041;-68
2023/11/27 11:32:40;;;;;;;8.60;5.47;;;;;;;;;;5040935;28;20405;-68
2023/11/27 11:35:11;;;;;;;9.13;5.50;;;;;;;;;;5025032;28;20095;-67
2023/11/27 11:37:50;;;;;;;8.82;5.38;;;;;;;;;;5024315;28;20045;-67
2023/11/27 11:40:17;;;;;;;8.38;5.43;;;;;;;;;;5025300;28;21778;-67
2023/11/27 11:42:44;;;;;;;10.05;6.47;;;;;;;;;;5024824;28;20045;-66
2023/11/27 11:45:16;;;;;;;8.93;5.95;;;;;;;;;;5025605;28;20468;-67
2023/11/27 11:47:43;;;;;;;8.70;5.75;;;;;;;;;;5024488;28;20053;-67
2023/11/27 11:50:19;;;;;;;8.00;5.30;;;;;;;;;;5025372;28;20097;-66
2023/11/27 11:52:47;;;;;;;7.30;4.88;;;;;;;;;;5029691;28;20216;-67
2023/11/27 11:55:15;;;;;;;7.35;5.10;;;;;;;;;;5023848;28;20060;-67
2023/11/27 11:57:42;;;;;;;7.00;4.93;;;;;;;;;;5007410;28;20045;-68
2023/11/27 12:00:19;;;;;;;6.78;4.72;;;;;;;;;;5026078;28;20049;-67
2023/11/27 12:02:47;;;;;;;8.23;5.10;;;;;;;;;;5025954;28;20038;-67
2023/11/27 12:05:15;;;;;;;8.80;5.70;;;;;;;;;;5026999;28;20056;-67
2023/11/27 12:07:42;;;;;;;9.50;6.50;;;;;;;;;;5026988;28;20042;-67
2023/11/27 12:10:09;;;;;;;9.45;6.90;;;;;;;;;;5024720;28;20477;-67
2023/11/27 12:12:35;;;;;;;10.60;7.20;;;;;;;;;;5022106;28;20054;-67
2023/11/27 12:15:05;;;;;;;10.60;7.65;;;;;;;;;;5022964;28;20119;-67
2023/11/27 12:17:32;;;;;;;12.38;8.23;;;;;;;;;;5028075;28;20528;-67
2023/11/27 12:20:00;;;;;;;13.13;9.02;;;;;;;;;;5024908;28;20100;-67
2023/11/27 12:22:29;;;;;;;12.55;9.00;;;;;;;;;;5027474;28;20033;-67
2023/11/27 12:24:55;;;;;;;17.08;10.48;;;;;;;;;;5028727;28;20186;-68
2023/11/27 12:27:22;;;;;;;18.60;11.40;;;;;;;;;;5046150;28;20516;-67
2023/11/27 12:29:49;;;;;;;17.58;11.75;;;;;;;;;;5015198;28;20191;-67
2023/11/27 12:32:16;;;;;;;16.00;12.07;;;;;;;;;;5026014;28;20411;-67
2023/11/27 12:34:42;;;;;;;15.98;11.48;;;;;;;;;;5029135;28;20493;-67
2023/11/27 12:37:09;;;;;;;15.98;12.15;;;;;;;;;;5027783;28;20412;-72
2023/11/27 12:39:37;;;;;;;18.92;11.50;;;;;;;;;;5026019;28;20049;-68
2023/11/27 12:42:11;;;;;;;18.58;12.38;;;;;;;;;;5041857;28;20064;-68
2023/11/27 12:44:38;;;;;;;19.40;11.27;;;;;;;;;;5022892;28;20548;-67
2023/11/27 12:47:05;;;;;;;14.60;10.82;;;;;;;;;;5028565;28;20543;-67
2023/11/27 12:49:34;;;;;;;15.95;11.27;;;;;;;;;;5028642;28;20048;-67
2023/11/27 12:52:10;;;;;;;13.98;10.57;;;;;;;;;;5027542;28;20075;-67
2023/11/27 12:54:36;;;;;;;14.93;10.63;;;;;;;;;;5027422;28;20404;-67
2023/11/27 12:57:05;;;;;;;16.08;11.23;;;;;;;;;;5025716;28;20185;-67
2023/11/27 12:59:32;;;;;;;17.15;12.25;;;;;;;;;;5025743;28;20128;-67
2023/11/27 13:01:58;;;;;;;16.48;11.63;;;;;;;;;;5022696;28;20132;-67
2023/11/27 13:04:29;;;;;;;17.58;12.70;;;;;;;;;;5025520;28;20053;-67
2023/11/27 13:06:58;;;;;;;15.77;11.30;;;;;;;;;;5010160;28;20049;-67
2023/11/27 13:09:25;;;;;;;14.75;10.68;;;;;;;;;;5023671;28;20060;-68
2023/11/27 13:11:52;;;;;;;16.02;12.23;;;;;;;;;;5025641;28;20049;-67
2023/11/27 13:14:19;;;;;;;15.70;11.40;;;;;;;;;;5023867;28;20053;-67
2023/11/27 13:16:47;;;;;;;15.55;11.07;;;;;;;;;;5025012;28;20110;-67
2023/11/27 13:19:13;;;;;;;17.45;12.00;;;;;;;;;;5027015;28;20365;-67
2023/11/27 13:21:39;;;;;;;15.20;11.43;;;;;;;;;;5025327;28;20140;-67
2023/11/27 13:24:06;;;;;;;17.20;11.85;;;;;;;;;;5024836;28;20053;-67
2023/11/27 13:26:38;;;;;;;16.67;11.98;;;;;;;;;;5023806;28;20048;-67
2023/11/27 13:29:06;;;;;;;15.32;10.93;;;;;;;;;;5021643;28;20397;-67
2023/11/27 13:31:33;;;;;;;13.80;10.70;;;;;;;;;;5028563;28;20045;-68
2023/11/27 13:34:07;;;;;;;14.73;11.30;;;;;;;;;;5025141;28;20127;-68
2023/11/27 13:36:36;;;;;;;14.98;10.73;;;;;;;;;;5023432;28;20048;-68
2023/11/27 13:39:07;;;;;;;17.55;10.75;;;;;;;;;;5023580;28;20099;-68
2023/11/27 13:41:35;;;;;;;15.00;9.82;;;;;;;;;;5020272;28;20087;-68
2023/11/27 13:44:07;;;;;;;14.65;11.00;;;;;;;;;;5023319;28;20477;-68
2023/11/27 13:46:34;;;;;;;16.65;10.50;;;;;;;;;;5024681;28;20428;-68
2023/11/27 13:49:06;;;;;;;13.57;10.73;;;;;;;;;;5023679;28;20135;-68
2023/11/27 13:51:33;;;;;;;12.70;9.05;;;;;;;;;;5024327;28;20072;-68
2023/11/27 13:53:59;;;;;;;11.30;9.05;;;;;;;;;;5025002;28;20485;-68
2023/11/27 13:56:30;;;;;;;11.57;8.52;;;;;;;;;;5025166;28;20038;-65
2023/11/27 13:58:56;;;;;;;14.48;9.65;;;;;;;;;;5025594;28;20049;-67
2023/11/27 14:01:23;;;;;;;11.80;8.82;;;;;;;;;;5023427;28;20042;-68
2023/11/27 14:03:49;;;;;;;11.85;8.88;;;;;;;;;;5023953;28;20045;-67
2023/11/27 14:06:16;;;;;;;11.15;8.27;;;;;;;;;;5023922;28;20048;-67
2023/11/27 14:08:52;;;;;;;11.18;8.38;;;;;;;;;;5022903;28;20453;-67
2023/11/27 14:11:22;;;;;;;11.00;8.18;;;;;;;;;;5025522;28;20110;-67
2023/11/27 14:13:50;;;;;;;10.43;8.23;;;;;;;;;;5025154;28;20049;-67
2023/11/27 14:16:19;;;;;;;12.68;9.27;;;;;;;;;;5025283;28;20124;-67
2023/11/27 14:23:59;;;;;;;11.77;8.50;;;;;;;;;;5028559;28;20441;-67
2023/11/27 14:27:16;;;;;;;11.52;8.18;;;;;;;;;;5031009;28;20404;-67